Time;durP1;ratioP1;P1;durP2;ratioP2;P2;SDS_P1;SDS_P2;PMS_P1;PMS_P2;Temp;Humidity;BMP_temperature;BMP_pressure;BME280_temperature;BME280_humidity;BME280_pressure;Samples;Min_cycle;Max_cycle;Signal;HPM_P1;HPM_P2
2022/10/01 00:02:00;;;;;;;1.73;1.53;;;;;;;10.95;68.47;100062.47;5052509;28;20211;-80
2022/10/01 00:04:28;;;;;;;4.03;2.27;;;;;;;10.99;68.69;100055.09;5052620;28;20203;-81
2022/10/01 00:06:58;;;;;;;2.83;1.80;;;;;;;10.99;68.62;100058.63;5049810;28;20211;-81
2022/10/01 00:09:24;;;;;;;3.33;2.40;;;;;;;11.01;68.32;100051.38;5048799;28;20213;-82
2022/10/01 00:11:52;;;;;;;2.83;2.33;;;;;;;11.01;68.26;100046.03;5045822;28;20206;-81
2022/10/01 00:14:18;;;;;;;3.13;2.07;;;;;;;10.99;68.22;100039.13;5047696;28;20212;-81
2022/10/01 00:16:45;;;;;;;3.97;2.57;;;;;;;10.96;68.36;100036.66;5048517;28;20229;-81
2022/10/01 00:19:13;;;;;;;3.07;2.10;;;;;;;10.92;67.82;100028.09;5043230;28;20207;-80
2022/10/01 00:21:41;;;;;;;2.83;2.47;;;;;;;10.88;68.48;100031.09;5043135;28;20292;-81
2022/10/01 00:24:09;;;;;;;6.77;2.50;;;;;;;10.85;68.54;100029.50;5041188;28;20212;-81
2022/10/01 00:26:36;;;;;;;2.80;2.10;;;;;;;10.83;69.00;100026.09;5044073;28;20731;-81
2022/10/01 00:29:06;;;;;;;4.53;2.40;;;;;;;10.78;68.87;100018.44;5043227;28;20226;-81
2022/10/01 00:31:33;;;;;;;2.97;2.30;;;;;;;10.77;68.99;100015.88;5046377;28;20207;-81
2022/10/01 00:34:02;;;;;;;2.50;2.20;;;;;;;10.73;69.07;100011.75;5048025;28;20218;-81
2022/10/01 00:36:29;;;;;;;5.90;2.50;;;;;;;10.70;69.11;100009.31;5047622;28;20699;-82
2022/10/01 00:38:59;;;;;;;3.10;2.80;;;;;;;10.68;69.53;100014.75;5050110;28;20209;-81
2022/10/01 00:41:26;;;;;;;3.53;2.83;;;;;;;10.67;69.64;100012.22;5048447;28;20217;-81
2022/10/01 00:43:56;;;;;;;3.50;2.70;;;;;;;10.65;69.75;100008.81;5049711;28;20204;-80
2022/10/01 00:46:27;;;;;;;5.40;2.60;;;;;;;10.63;69.77;100000.06;5047645;28;20224;-81
2022/10/01 00:48:58;;;;;;;4.27;2.43;;;;;;;10.62;69.67;99999.22;5041417;28;20206;-81
2022/10/01 00:51:29;;;;;;;4.27;2.30;;;;;;;10.61;69.82;99996.66;5046620;28;20215;-81
2022/10/01 00:54:02;;;;;;;2.77;2.23;;;;;;;10.59;70.17;99993.25;5044568;28;20682;-81
2022/10/01 00:56:30;;;;;;;2.50;2.30;;;;;;;10.58;70.04;99986.25;5043783;28;20230;-81
2022/10/01 00:58:57;;;;;;;3.97;2.20;;;;;;;10.56;70.14;99975.72;5049405;28;20209;-82
2022/10/01 01:01:25;;;;;;;3.17;2.67;;;;;;;10.53;70.37;99970.63;5048733;28;20211;-81
2022/10/01 01:03:51;;;;;;;4.83;2.70;;;;;;;10.52;70.74;99970.75;5042738;28;20869;-81
2022/10/01 01:06:18;;;;;;;4.23;2.60;;;;;;;10.50;70.74;99970.00;5043027;28;20272;-80
2022/10/01 01:08:45;;;;;;;3.77;2.50;;;;;;;10.49;70.97;99968.31;5044750;28;20213;-80
2022/10/01 01:11:22;;;;;;;3.23;2.50;;;;;;;10.49;70.83;99960.31;5036929;28;20214;-80
2022/10/01 01:13:57;;;;;;;2.73;2.00;;;;;;;10.52;70.91;99965.41;5044952;28;20284;-80
2022/10/01 01:16:28;;;;;;;3.83;2.10;;;;;;;10.53;70.87;99965.31;5042712;28;20228;-81
2022/10/01 01:19:02;;;;;;;3.03;2.10;;;;;;;10.56;70.96;99958.91;5043772;28;20202;-81
2022/10/01 01:21:32;;;;;;;2.33;2.10;;;;;;;10.59;70.80;99962.16;5041898;28;20411;-81
2022/10/01 01:24:51;;;;;;;4.20;2.10;;;;;;;10.62;70.40;99959.28;5051161;28;20209;-81
2022/10/01 01:27:36;;;;;;;2.90;2.23;;;;;;;10.61;70.46;99957.56;5001128;28;20211;-81
2022/10/01 01:30:07;;;;;;;3.60;2.07;;;;;;;10.60;70.53;99949.69;4993726;28;20939;-81
2022/10/01 01:32:46;;;;;;;2.43;2.23;;;;;;;10.57;70.64;99942.78;5033050;28;20206;-81
2022/10/01 01:35:19;;;;;;;3.00;2.20;;;;;;;10.55;70.73;99949.22;5048743;28;20218;-81
2022/10/01 01:37:52;;;;;;;3.93;2.53;;;;;;;10.55;70.59;99954.53;5048869;28;20213;-81
2022/10/01 01:40:20;;;;;;;3.60;2.40;;;;;;;10.52;70.83;99941.44;5044319;28;20211;-81
2022/10/01 01:42:50;;;;;;;2.70;2.40;;;;;;;10.50;71.04;99941.56;5049708;28;20211;-81
2022/10/01 01:45:23;;;;;;;4.23;2.40;;;;;;;10.49;71.16;99933.69;5051344;28;20221;-80
2022/10/01 01:47:54;;;;;;;3.93;2.47;;;;;;;10.48;71.26;99934.66;5049652;28;20197;-81
2022/10/01 01:50:23;;;;;;;3.20;2.70;;;;;;;10.46;71.53;99932.09;5050537;28;20206;-81
2022/10/01 01:52:50;;;;;;;4.27;2.60;;;;;;;10.46;71.52;99932.09;5045246;28;20210;-80
2022/10/01 01:55:17;;;;;;;4.63;3.03;;;;;;;10.45;71.64;99922.41;5051316;28;20233;-81
2022/10/01 01:57:44;;;;;;;3.70;2.97;;;;;;;10.44;71.59;99918.06;5050620;28;20653;-80
2022/10/01 02:00:13;;;;;;;3.80;2.50;;;;;;;10.44;71.78;99908.25;5051522;28;20645;-80
2022/10/01 02:02:47;;;;;;;3.73;2.50;;;;;;;10.43;71.63;99913.69;5048844;28;20230;-80
2022/10/01 02:05:17;;;;;;;4.37;3.00;;;;;;;10.42;71.71;99910.19;5044495;28;20229;-80
2022/10/01 02:08:19;;;;;;;2.80;2.50;;;;;;;10.40;71.86;99896.13;5045602;28;20206;-80
2022/10/01 02:11:02;;;;;;;2.80;2.40;;;;;;;10.39;72.03;99894.44;5037197;28;20210;-80
2022/10/01 02:13:38;;;;;;;2.63;2.20;;;;;;;10.41;72.04;99902.31;5046325;28;20623;-80
2022/10/01 02:16:15;;;;;;;2.93;2.20;;;;;;;10.41;72.03;99892.50;5044157;28;20260;-81
2022/10/01 02:18:49;;;;;;;4.27;2.40;;;;;;;10.43;71.73;99895.06;5043496;28;20236;-80
2022/10/01 02:21:20;;;;;;;4.37;2.10;;;;;;;10.42;72.17;99886.22;5048278;28;20199;-81
2022/10/01 02:23:51;;;;;;;3.10;2.20;;;;;;;10.44;71.94;99881.63;5048761;28;20199;-81
2022/10/01 02:26:23;;;;;;;3.57;2.03;;;;;;;10.49;71.97;99883.97;5042342;28;20252;-81
2022/10/01 02:28:52;;;;;;;2.87;2.10;;;;;;;10.52;71.57;99874.91;5050067;28;20839;-80
2022/10/01 02:31:21;;;;;;;3.13;1.80;;;;;;;10.55;71.33;99869.34;5049050;28;20214;-80
2022/10/01 02:33:53;;;;;;;2.87;1.90;;;;;;;10.62;71.08;99859.91;5049103;28;20338;-80
2022/10/01 02:36:22;;;;;;;2.30;1.70;;;;;;;10.65;70.72;99859.69;5050679;28;20584;-81
2022/10/01 02:38:50;;;;;;;3.47;1.67;;;;;;;10.70;70.25;99860.19;5050460;28;20721;-80
2022/10/01 02:41:22;;;;;;;2.60;1.80;;;;;;;10.74;69.93;99848.34;5050519;28;20261;-80
2022/10/01 02:43:52;;;;;;;4.07;2.07;;;;;;;10.78;69.80;99855.09;5052120;28;20210;-81
2022/10/01 02:46:27;;;;;;;2.77;1.70;;;;;;;10.80;69.58;99847.84;5049405;28;20245;-81
2022/10/01 02:48:55;;;;;;;4.23;1.90;;;;;;;10.84;69.40;99844.00;5053636;28;20570;-80
2022/10/01 02:51:29;;;;;;;2.10;1.80;;;;;;;10.89;69.12;99836.50;5052864;28;20679;-81
2022/10/01 02:54:01;;;;;;;1.63;1.53;;;;;;;10.93;68.79;99834.41;5049381;28;20294;-81
2022/10/01 02:59:12;;;;;;;2.97;2.07;;;;;;;11.00;68.51;99823.19;5053578;28;20252;-81
2022/10/01 03:01:39;;;;;;;3.90;2.30;;;;;;;11.02;68.35;99810.59;5053629;28;20206;-81
2022/10/01 03:04:06;;;;;;;2.47;1.83;;;;;;;11.05;67.85;99807.69;5049364;28;20321;-81
2022/10/01 03:06:34;;;;;;;2.10;1.90;;;;;;;11.07;68.13;99803.09;5048931;28;20250;-81
2022/10/01 03:09:01;;;;;;;2.23;2.00;;;;;;;11.10;68.19;99794.88;5053270;28;20290;-80
2022/10/01 03:11:27;;;;;;;2.50;1.80;;;;;;;11.12;67.78;99784.91;5051286;28;20570;-80
2022/10/01 03:13:54;;;;;;;3.40;2.30;;;;;;;11.16;67.80;99785.50;5050854;28;20638;-81
2022/10/01 03:16:20;;;;;;;3.13;2.00;;;;;;;11.20;67.71;99778.13;5051672;28;20221;-80
2022/10/01 03:18:46;;;;;;;3.93;1.97;;;;;;;11.22;67.55;99776.19;5051179;28;20228;-81
2022/10/01 03:21:14;;;;;;;3.20;2.03;;;;;;;11.24;67.36;99769.78;5052883;28;20201;-80
2022/10/01 03:23:41;;;;;;;2.30;2.10;;;;;;;11.28;67.34;99765.91;5049144;28;20210;-80
2022/10/01 03:26:07;;;;;;;4.33;2.10;;;;;;;11.28;67.21;99765.91;5052720;28;20225;-81
2022/10/01 03:28:34;;;;;;;2.43;1.80;;;;;;;11.30;67.19;99769.25;5052451;28;20578;-80
2022/10/01 03:31:08;;;;;;;2.40;1.90;;;;;;;11.32;67.18;99762.00;5046890;28;20212;-80
2022/10/01 03:33:36;;;;;;;3.83;2.00;;;;;;;11.34;67.10;99762.72;5048157;28;20214;-81
2022/10/01 03:36:03;;;;;;;3.47;1.90;;;;;;;11.37;66.95;99761.63;5051480;28;20235;-81
2022/10/01 03:38:31;;;;;;;2.67;1.87;;;;;;;11.38;67.15;99750.00;5051887;28;20230;-81
2022/10/01 03:40:57;;;;;;;4.37;2.20;;;;;;;11.41;66.86;99763.09;5051834;28;20216;-81
2022/10/01 03:43:25;;;;;;;3.90;2.00;;;;;;;11.44;66.89;99738.84;5050488;28;20216;-80
2022/10/01 03:45:52;;;;;;;2.20;1.90;;;;;;;11.43;66.91;99745.16;5052096;28;20694;-81
2022/10/01 03:48:18;;;;;;;3.03;1.93;;;;;;;11.46;66.76;99739.56;5052510;28;20204;-80
2022/10/01 03:50:53;;;;;;;3.43;2.10;;;;;;;11.45;66.78;99738.72;5052294;28;20206;-80
2022/10/01 03:53:20;;;;;;;4.23;2.20;;;;;;;11.46;66.68;99742.22;5051250;28;20219;-80
2022/10/01 03:55:48;;;;;;;3.63;2.23;;;;;;;11.46;66.70;99743.06;5052476;28;20227;-81
2022/10/01 03:58:14;;;;;;;2.10;1.70;;;;;;;11.49;66.72;99741.97;5051783;28;20424;-81
2022/10/01 04:00:41;;;;;;;2.73;2.30;;;;;;;11.51;66.41;99733.84;5047576;28;20206;-81
2022/10/01 04:03:07;;;;;;;4.70;1.93;;;;;;;11.51;66.58;99733.84;5051964;28;20240;-80
2022/10/01 04:05:33;;;;;;;3.97;2.17;;;;;;;11.52;66.56;99735.53;5047574;28;20231;-80
2022/10/01 04:08:00;;;;;;;4.90;2.13;;;;;;;11.53;66.67;99732.75;5046651;28;20206;-80
2022/10/01 04:10:27;;;;;;;3.00;2.23;;;;;;;11.54;66.55;99737.09;5049864;28;20209;-80
2022/10/01 04:12:55;;;;;;;3.30;1.80;;;;;;;11.54;66.67;99734.44;5050827;28;20212;-81
2022/10/01 04:15:21;;;;;;;4.43;2.00;;;;;;;11.55;66.51;99735.28;5046538;28;20251;-80
2022/10/01 04:17:48;;;;;;;3.30;2.20;;;;;;;11.55;66.62;99733.47;5050118;28;20313;-81
2022/10/01 04:20:15;;;;;;;3.07;2.20;;;;;;;11.55;66.72;99725.47;5051685;28;20212;-81
2022/10/01 04:22:42;;;;;;;2.50;1.93;;;;;;;11.56;66.88;99713.84;5049479;28;20215;-80
2022/10/01 04:25:10;;;;;;;3.57;2.20;;;;;;;11.57;66.71;99712.84;5050991;28;20228;-80
2022/10/01 04:27:37;;;;;;;2.70;2.10;;;;;;;11.58;67.00;99703.88;5048433;28;20692;-80
2022/10/01 04:30:08;;;;;;;2.67;2.37;;;;;;;11.57;67.11;99702.19;5051017;28;20212;-81
2022/10/01 04:32:35;;;;;;;2.70;1.90;;;;;;;11.56;67.46;99695.16;5042701;28;20212;-81
2022/10/01 04:35:03;;;;;;;2.50;2.30;;;;;;;11.57;67.40;99696.84;5049514;28;20237;-80
2022/10/01 04:37:29;;;;;;;4.83;2.53;;;;;;;11.57;68.00;99696.00;5051247;28;20219;-80
2022/10/01 04:39:56;;;;;;;5.07;2.33;;;;;;;11.57;68.20;99696.84;5049188;28;20616;-81
2022/10/01 04:42:22;;;;;;;3.03;2.17;;;;;;;11.58;68.74;99687.88;5051146;28;20219;-82
2022/10/01 04:44:49;;;;;;;4.57;2.73;;;;;;;11.57;68.92;99677.34;5050656;28;20218;-82
2022/10/01 04:47:17;;;;;;;2.73;2.13;;;;;;;11.54;69.32;99675.78;5051055;28;20207;-81
2022/10/01 04:49:43;;;;;;;4.70;2.97;;;;;;;11.55;69.82;99661.47;5047418;28;20209;-81
2022/10/01 04:52:11;;;;;;;5.80;3.40;;;;;;;11.50;70.47;99658.31;5049758;28;20230;-81
2022/10/01 04:54:37;;;;;;;4.57;2.90;;;;;;;11.46;71.04;99655.06;5048074;28;20217;-81
2022/10/01 04:57:04;;;;;;;3.87;2.33;;;;;;;11.46;71.33;99648.91;5051044;28;20208;-81
2022/10/01 04:59:30;;;;;;;2.93;2.27;;;;;;;11.42;71.75;99636.81;5049666;28;20227;-81
2022/10/01 05:01:57;;;;;;;3.17;2.00;;;;;;;11.38;72.44;99636.22;5048646;28;20216;-81
2022/10/01 05:04:26;;;;;;;3.07;1.93;;;;;;;11.35;72.67;99644.44;5045653;28;20213;-81
2022/10/01 05:06:52;;;;;;;2.53;1.97;;;;;;;11.31;73.14;99618.16;5049326;28;20322;-81
2022/10/01 05:09:19;;;;;;;2.97;2.50;;;;;;;11.28;73.56;99615.78;5044281;28;20211;-81
2022/10/01 05:11:45;;;;;;;2.50;2.30;;;;;;;11.25;74.07;99613.38;5046054;28;20210;-81
2022/10/01 05:14:14;;;;;;;3.30;2.60;;;;;;;11.21;74.96;99614.59;5042493;28;20702;-81
2022/10/01 05:16:40;;;;;;;3.43;2.63;;;;;;;11.17;74.96;99613.13;5046552;28;20223;-81
2022/10/01 05:19:06;;;;;;;2.90;2.60;;;;;;;11.11;75.41;99604.66;5046322;28;20231;-81
2022/10/01 05:21:34;;;;;;;7.27;2.77;;;;;;;11.07;75.95;99595.25;5046594;28;20199;-82
2022/10/01 05:24:01;;;;;;;3.17;2.53;;;;;;;11.05;76.43;99599.84;5049179;28;20218;-80
2022/10/01 05:26:28;;;;;;;2.73;2.23;;;;;;;11.01;77.02;99595.75;5043189;28;20242;-81
2022/10/01 05:28:54;;;;;;;3.10;2.80;;;;;;;11.00;77.56;99593.19;5042162;28;20252;-81
2022/10/01 05:31:21;;;;;;;2.83;2.47;;;;;;;10.96;77.82;99597.94;5048052;28;20213;-80
2022/10/01 05:33:48;;;;;;;3.97;2.30;;;;;;;10.93;78.60;99587.50;5049515;28;20202;-80
2022/10/01 05:36:14;;;;;;;3.43;2.60;;;;;;;10.90;78.84;99594.94;5048530;28;20249;-81
2022/10/01 05:38:42;;;;;;;3.50;2.63;;;;;;;10.89;79.57;99582.59;5049669;28;20668;-81
2022/10/01 05:41:09;;;;;;;3.73;2.80;;;;;;;10.84;79.87;99587.44;5048652;28;20650;-80
2022/10/01 05:43:35;;;;;;;3.97;2.47;;;;;;;10.81;80.33;99585.88;5045922;28;20657;-80
2022/10/01 05:46:04;;;;;;;4.13;2.70;;;;;;;10.77;80.76;99595.91;5045113;28;20233;-80
2022/10/01 05:48:35;;;;;;;3.50;2.83;;;;;;;10.73;81.24;99593.63;5044395;28;20640;-80
2022/10/01 05:51:03;;;;;;;2.97;2.60;;;;;;;10.73;81.86;99588.31;5040351;28;20209;-81
2022/10/01 05:53:29;;;;;;;5.00;3.03;;;;;;;10.67;82.41;99583.47;5044980;28;20707;-80
2022/10/01 05:55:59;;;;;;;4.63;2.50;;;;;;;10.64;82.56;99597.88;5043441;28;20726;-81
2022/10/01 05:58:26;;;;;;;4.23;2.60;;;;;;;10.63;82.95;99577.53;5045301;28;20657;-81
2022/10/01 06:00:55;;;;;;;4.93;3.20;;;;;;;10.62;83.17;99590.97;5044883;28;20283;-81
2022/10/01 06:03:21;;;;;;;3.23;2.47;;;;;;;10.65;83.67;99585.41;5038178;28;20215;-81
2022/10/01 06:05:48;;;;;;;3.27;2.83;;;;;;;10.62;83.85;99585.66;5044272;28;20223;-81
2022/10/01 06:08:14;;;;;;;4.93;2.90;;;;;;;10.58;84.26;99568.22;5046931;28;20568;-81
2022/10/01 06:10:41;;;;;;;3.83;3.00;;;;;;;10.57;84.29;99583.34;5045105;28;20228;-81
2022/10/01 06:13:09;;;;;;;9.63;5.00;;;;;;;10.57;84.89;99582.53;5043099;28;20250;-81
2022/10/01 06:15:37;;;;;;;2.73;2.30;;;;;;;10.56;85.20;99556.88;5048549;28;20244;-81
2022/10/01 06:18:05;;;;;;;5.17;3.47;;;;;;;10.55;85.63;99569.34;5049559;28;20201;-81
2022/10/01 06:20:32;;;;;;;5.27;3.60;;;;;;;10.53;85.54;99565.94;5049135;28;20689;-82
2022/10/01 06:22:58;;;;;;;3.67;2.60;;;;;;;10.54;85.65;99566.81;5053187;28;20613;-82
2022/10/01 06:25:29;;;;;;;3.07;2.67;;;;;;;10.51;86.16;99565.22;5048149;28;20233;-80
2022/10/01 06:27:58;;;;;;;4.23;2.40;;;;;;;10.49;86.44;99561.00;5052454;28;20233;-81
2022/10/01 06:30:28;;;;;;;3.20;2.40;;;;;;;10.48;86.79;99557.47;5044398;28;20214;-81
2022/10/01 06:33:01;;;;;;;3.17;2.40;;;;;;;10.47;86.78;99552.28;5043531;28;20223;-81
2022/10/01 06:35:28;;;;;;;3.23;2.20;;;;;;;10.44;87.46;99564.84;5051271;28;20309;-80
2022/10/01 06:37:54;;;;;;;2.93;2.60;;;;;;;10.42;87.35;99553.47;5045975;28;20687;-80
2022/10/01 06:40:22;;;;;;;2.57;2.37;;;;;;;10.42;87.88;99557.97;5045264;28;20234;-81
2022/10/01 06:42:57;;;;;;;2.97;2.27;;;;;;;10.43;87.96;99549.00;5055589;28;20281;-81
2022/10/01 06:45:27;;;;;;;2.87;2.27;;;;;;;10.41;88.15;99549.13;5051403;28;20266;-81
2022/10/01 06:48:37;;;;;;;;;;;;;;;;;;;;;
2022/10/01 06:51:04;;;;;;;5.27;2.40;;;;;;;10.42;88.66;99548.16;5048318;28;20201;-81
2022/10/01 06:53:31;;;;;;;2.23;1.87;;;;;;;10.44;89.05;99537.41;5046162;28;20216;-81
2022/10/01 06:55:57;;;;;;;3.33;2.47;;;;;;;10.43;89.12;99523.25;5041019;28;20262;-81
2022/10/01 06:58:26;;;;;;;3.83;2.17;;;;;;;10.44;89.19;99518.75;5047293;28;20684;-81
2022/10/01 07:00:58;;;;;;;2.97;2.00;;;;;;;10.46;89.65;99526.63;5042612;28;20715;-81
2022/10/01 07:03:25;;;;;;;2.70;1.80;;;;;;;10.46;89.65;99526.63;5047309;28;20310;-81
2022/10/01 07:05:51;;;;;;;2.33;2.13;;;;;;;10.44;89.87;99518.75;5041005;28;20232;-81
2022/10/01 07:08:18;;;;;;;2.57;2.20;;;;;;;10.47;90.05;99515.84;5046843;28;20209;-81
2022/10/01 07:10:45;;;;;;;3.47;2.10;;;;;;;10.49;90.28;99518.41;5040143;28;20206;-81
2022/10/01 07:13:13;;;;;;;2.60;1.80;;;;;;;10.49;90.42;99505.09;5038860;28;20239;-81
2022/10/01 07:15:39;;;;;;;3.20;1.80;;;;;;;10.49;90.49;99502.44;5046865;28;20776;-81
2022/10/01 07:18:08;;;;;;;2.43;1.80;;;;;;;10.48;90.52;99503.41;5050567;28;20217;-80
2022/10/01 07:20:38;;;;;;;1.57;1.47;;;;;;;10.49;90.60;99505.09;5046867;28;20257;-82
2022/10/01 07:23:06;;;;;;;1.67;1.53;;;;;;;10.47;90.88;99509.69;5046598;28;20247;-81
2022/10/01 07:25:33;;;;;;;1.30;1.20;;;;;;;10.50;90.96;99496.13;5051793;28;20305;-81
2022/10/01 07:28:03;;;;;;;3.37;2.40;;;;;;;10.53;91.43;99503.88;5048161;28;20233;-81
2022/10/01 07:30:29;;;;;;;3.73;1.60;;;;;;;10.53;91.15;99502.06;5047653;28;20673;-81
2022/10/01 07:32:56;;;;;;;1.80;1.57;;;;;;;10.52;91.49;99504.84;5042323;28;20210;-81
2022/10/01 07:35:24;;;;;;;1.67;1.43;;;;;;;10.51;91.59;99506.66;5039953;28;20230;-81
2022/10/01 07:37:52;;;;;;;2.40;1.30;;;;;;;10.53;91.65;99506.53;5042641;28;20201;-81
2022/10/01 07:40:19;;;;;;;1.97;1.60;;;;;;;10.52;91.83;99502.19;5042786;28;20234;-81
2022/10/01 07:42:53;;;;;;;2.37;1.30;;;;;;;10.56;92.05;99507.13;5050501;28;20212;-81
2022/10/01 07:45:20;;;;;;;2.10;1.20;;;;;;;10.58;92.06;99501.66;5046270;28;20253;-81
2022/10/01 07:47:52;;;;;;;1.40;1.30;;;;;;;10.60;92.30;99497.06;5050188;28;20213;-81
2022/10/01 07:50:19;;;;;;;1.40;1.30;;;;;;;10.60;92.38;99505.91;5045493;28;20569;-80
2022/10/01 07:52:50;;;;;;;1.60;1.50;;;;;;;10.60;92.38;99500.56;5046177;28;20194;-81
2022/10/01 07:55:17;;;;;;;1.37;1.27;;;;;;;10.63;92.42;99494.16;5040622;28;20265;-81
2022/10/01 07:57:43;;;;;;;1.43;1.33;;;;;;;10.63;92.57;99503.00;5043220;28;20654;-81
2022/10/01 08:00:11;;;;;;;1.40;1.20;;;;;;;10.63;92.81;99488.81;5044429;28;20806;-81
2022/10/01 08:02:37;;;;;;;1.33;1.23;;;;;;;10.61;92.80;99486.28;5041410;28;20210;-81
2022/10/01 08:05:17;;;;;;;1.60;1.50;;;;;;;10.62;92.97;99493.31;5045301;28;20221;-82
2022/10/01 08:07:44;;;;;;;1.63;1.53;;;;;;;10.64;93.39;99479.88;5044925;28;20206;-81
2022/10/01 08:10:11;;;;;;;1.10;1.00;;;;;;;10.64;93.12;99488.72;5045685;28;20572;-81
2022/10/01 08:12:38;;;;;;;1.53;1.27;;;;;;;10.65;92.97;99485.06;5048338;28;20209;-81
2022/10/01 08:15:07;;;;;;;1.77;1.17;;;;;;;10.70;92.93;99484.72;5045636;28;20233;-81
2022/10/01 08:17:34;;;;;;;0.83;0.80;;;;;;;10.72;93.03;99478.28;5039427;28;20311;-81
2022/10/01 08:20:01;;;;;;;1.47;1.00;;;;;;;10.83;92.77;99476.53;5042926;28;20229;-81
2022/10/01 08:22:27;;;;;;;1.30;1.10;;;;;;;10.82;92.84;99473.03;5046563;28;20723;-82
2022/10/01 08:24:54;;;;;;;1.07;0.90;;;;;;;10.86;92.86;99477.13;5039926;28;20226;-81
2022/10/01 08:27:23;;;;;;;1.37;0.80;;;;;;;10.87;92.62;99484.16;5044254;28;20919;-82
2022/10/01 08:29:50;;;;;;;1.50;1.10;;;;;;;10.92;92.64;99484.63;5045784;28;20202;-81
2022/10/01 08:32:16;;;;;;;0.90;0.90;;;;;;;10.91;92.87;99501.59;5045457;28;20204;-82
2022/10/01 08:34:43;;;;;;;0.80;0.80;;;;;;;10.93;92.66;99488.94;5045430;28;20297;-82
2022/10/01 08:37:09;;;;;;;0.70;0.70;;;;;;;10.94;92.67;99501.31;5044838;28;20210;-82
2022/10/01 08:39:36;;;;;;;0.90;0.77;;;;;;;10.97;92.31;99495.72;5044226;28;20226;-82
2022/10/01 08:42:07;;;;;;;0.90;0.70;;;;;;;10.98;92.31;99497.41;5044198;28;20266;-82
2022/10/01 08:44:40;;;;;;;1.07;1.00;;;;;;;11.03;92.02;99489.91;5037576;28;20198;-81
2022/10/01 08:47:14;;;;;;;0.60;0.60;;;;;;;11.05;92.33;99495.94;5042292;28;20704;-81
2022/10/01 08:49:44;;;;;;;0.73;0.73;;;;;;;11.10;92.27;99501.75;5040780;28;20197;-81
2022/10/01 08:52:19;;;;;;;0.60;0.60;;;;;;;11.12;92.31;99505.09;5046366;28;20669;-81
2022/10/01 08:54:50;;;;;;;1.03;0.70;;;;;;;11.11;92.32;99503.41;5044861;28;20219;-81
2022/10/01 08:57:21;;;;;;;1.00;0.90;;;;;;;11.11;92.33;99502.56;5038710;28;20198;-81
2022/10/01 08:59:54;;;;;;;0.60;0.60;;;;;;;11.13;92.34;99501.47;5043504;28;20232;-81
2022/10/01 09:02:25;;;;;;;1.20;0.60;;;;;;;11.13;92.63;99512.13;5042879;28;20557;-81
2022/10/01 09:04:56;;;;;;;0.73;0.73;;;;;;;11.19;92.49;99515.25;5037789;28;20214;-82
2022/10/01 09:07:42;;;;;;;0.60;0.60;;;;;;;11.20;92.69;99511.63;5044777;28;20567;-82
2022/10/01 09:10:24;;;;;;;0.83;0.70;;;;;;;11.21;92.86;99514.16;5038035;28;20777;-82
2022/10/01 09:13:07;;;;;;;0.60;0.60;;;;;;;11.21;93.11;99515.97;5040069;28;20204;-82
2022/10/01 09:15:41;;;;;;;0.83;0.80;;;;;;;11.21;93.19;99515.97;5039743;28;20226;-81
2022/10/01 09:18:18;;;;;;;0.90;0.67;;;;;;;11.26;93.13;99525.28;5037692;28;20571;-82
2022/10/01 09:20:51;;;;;;;1.53;0.73;;;;;;;11.29;93.37;99518.81;5040954;28;20215;-81
2022/10/01 09:23:25;;;;;;;1.23;0.80;;;;;;;11.31;93.34;99527.53;5036138;28;20673;-81
2022/10/01 09:25:52;;;;;;;1.60;0.90;;;;;;;11.31;93.32;99527.53;5040663;28;20859;-81
2022/10/01 09:28:20;;;;;;;1.43;0.97;;;;;;;11.30;93.40;99523.19;5042176;28;20561;-80
2022/10/01 09:30:55;;;;;;;0.70;0.70;;;;;;;11.30;93.49;99523.19;5041351;28;20663;-81
2022/10/01 09:33:24;;;;;;;1.33;0.50;;;;;;;11.31;93.67;99530.19;5041974;28;20202;-80
2022/10/01 09:36:00;;;;;;;1.33;1.10;;;;;;;11.33;93.95;99522.94;5038560;28;20758;-81
2022/10/01 09:38:33;;;;;;;0.73;0.73;;;;;;;11.38;94.05;99536.72;5040657;28;20209;-82
2022/10/01 09:41:00;;;;;;;0.80;0.77;;;;;;;11.38;94.11;99534.91;5039922;28;20222;-80
2022/10/01 09:43:29;;;;;;;0.63;0.63;;;;;;;11.44;94.16;99541.56;5039424;28;20193;-81
2022/10/01 09:45:58;;;;;;;0.60;0.60;;;;;;;11.50;94.20;99541.00;5045875;28;20837;-80
2022/10/01 09:48:34;;;;;;;1.13;0.50;;;;;;;11.51;94.20;99537.38;5042853;28;20214;-81
2022/10/01 09:51:06;;;;;;;0.60;0.60;;;;;;;11.58;94.36;99543.88;5050685;28;20200;-80
2022/10/01 09:53:40;;;;;;;1.37;0.70;;;;;;;11.61;94.44;99543.63;5049249;28;20219;-81
2022/10/01 09:56:14;;;;;;;0.60;0.60;;;;;;;11.63;94.30;99544.34;5049009;28;21152;-80
2022/10/01 09:58:47;;;;;;;0.70;0.70;;;;;;;11.67;94.58;99548.41;5052806;28;20273;-80
2022/10/01 10:01:23;;;;;;;1.77;0.70;;;;;;;11.69;94.53;99545.63;5044357;28;20217;-81
2022/10/01 10:03:55;;;;;;;1.23;0.73;;;;;;;11.76;93.96;99557.50;5047056;28;20211;-81
2022/10/01 10:06:26;;;;;;;0.73;0.60;;;;;;;11.77;93.94;99565.38;5045779;28;20233;-81
2022/10/01 10:08:56;;;;;;;0.87;0.60;;;;;;;11.82;93.62;99560.47;5048788;28;20291;-81
2022/10/01 10:11:27;;;;;;;0.60;0.60;;;;;;;11.83;93.53;99556.84;5050145;28;20733;-82
2022/10/01 10:13:58;;;;;;;0.97;0.60;;;;;;;11.83;93.50;99561.31;5042438;28;20921;-81
2022/10/01 10:16:28;;;;;;;0.63;0.63;;;;;;;11.86;93.60;99557.53;5046703;28;20250;-80
2022/10/01 10:18:58;;;;;;;0.70;0.60;;;;;;;11.89;93.59;99565.28;5044357;28;20208;-80
2022/10/01 10:21:30;;;;;;;0.60;0.60;;;;;;;11.91;93.68;99566.00;5045975;28;20311;-81
2022/10/01 10:23:58;;;;;;;2.37;0.80;;;;;;;11.94;93.43;99566.59;5049521;28;20200;-80
2022/10/01 10:26:30;;;;;;;0.97;0.63;;;;;;;11.98;93.26;99570.69;5056459;28;20227;-80
2022/10/01 10:28:58;;;;;;;1.40;0.60;;;;;;;12.01;93.57;99562.41;5057020;28;20253;-79
2022/10/01 10:31:34;;;;;;;0.60;0.60;;;;;;;12.11;93.27;99565.13;5056472;28;20205;-80
2022/10/01 10:34:07;;;;;;;0.47;0.47;;;;;;;12.19;93.20;99565.31;5056485;28;20193;-80
2022/10/01 10:36:36;;;;;;;1.17;0.60;;;;;;;12.25;93.26;99553.25;5056039;28;20323;-80
2022/10/01 10:39:06;;;;;;;0.73;0.70;;;;;;;12.32;93.25;99563.28;5056254;28;20206;-80
2022/10/01 10:41:34;;;;;;;0.70;0.50;;;;;;;12.39;92.92;99551.06;5055640;28;20225;-80
2022/10/01 10:44:03;;;;;;;0.70;0.70;;;;;;;12.41;92.49;99554.44;5056565;28;20721;-79
2022/10/01 10:46:34;;;;;;;0.50;0.50;;;;;;;12.43;92.07;99565.81;5056141;28;20225;-80
2022/10/01 10:49:09;;;;;;;1.20;0.80;;;;;;;12.47;92.36;99559.25;5057229;28;20220;-80
2022/10/01 10:51:44;;;;;;;1.40;0.70;;;;;;;12.50;92.05;99550.97;5056181;28;20188;-81
2022/10/01 10:54:18;;;;;;;1.20;0.80;;;;;;;12.57;91.44;99545.06;5055816;28;20225;-80
2022/10/01 10:56:59;;;;;;;0.90;0.80;;;;;;;12.61;91.91;99541.97;5055937;28;20231;-80
2022/10/01 10:59:26;;;;;;;2.20;1.53;;;;;;;12.74;92.45;99549.75;5056084;28;20250;-80
2022/10/01 11:01:54;;;;;;;1.53;1.20;;;;;;;12.87;92.76;99561.03;5055927;28;20205;-81
2022/10/01 11:04:29;;;;;;;3.40;1.47;;;;;;;12.97;91.50;99556.53;5056701;28;20691;-80
2022/10/01 11:06:57;;;;;;;4.57;2.00;;;;;;;13.05;91.51;99566.53;5056454;28;20247;-80
2022/10/01 11:09:29;;;;;;;6.37;3.73;;;;;;;13.16;91.31;99561.09;5056651;28;20209;-80
2022/10/01 11:12:04;;;;;;;2.80;1.27;;;;;;;13.25;90.85;99562.94;5057281;28;20208;-80
2022/10/01 11:14:47;;;;;;;1.90;1.30;;;;;;;13.37;91.09;99569.81;5055934;28;20229;-80
2022/10/01 11:17:39;;;;;;;0.93;0.90;;;;;;;13.45;89.98;99563.75;5057758;28;20193;-81
2022/10/01 11:20:33;;;;;;;0.70;0.70;;;;;;;13.46;88.83;99574.31;5045779;28;20225;-81
2022/10/01 11:23:20;;;;;;;1.73;0.63;;;;;;;13.48;88.05;99572.34;5052638;28;20263;-80
2022/10/01 11:26:08;;;;;;;1.43;0.90;;;;;;;13.51;87.38;99573.88;5055170;28;20567;-79
2022/10/01 11:28:45;;;;;;;2.13;0.67;;;;;;;13.57;87.33;99584.03;5055259;28;20262;-80
2022/10/01 11:31:23;;;;;;;1.50;0.87;;;;;;;13.60;86.34;99582.91;5056029;28;20604;-79
2022/10/01 11:34:05;;;;;;;1.17;1.00;;;;;;;13.66;86.35;99585.84;5056618;28;20189;-81
2022/10/01 11:36:42;;;;;;;0.70;0.70;;;;;;;13.76;86.49;99597.41;5055469;28;20857;-81
2022/10/01 11:39:14;;;;;;;1.20;1.10;;;;;;;13.86;86.84;99592.00;5055437;28;20189;-80
2022/10/01 11:41:44;;;;;;;1.03;0.80;;;;;;;13.98;86.37;99592.69;5056278;28;20251;-80
2022/10/01 11:44:16;;;;;;;1.00;1.00;;;;;;;14.03;85.72;99593.09;5057835;28;20197;-81
2022/10/01 11:46:52;;;;;;;1.10;0.83;;;;;;;14.13;85.68;99593.94;5058764;28;20329;-81
2022/10/01 11:49:41;;;;;;;1.33;1.20;;;;;;;14.20;84.83;99595.03;5058127;28;20190;-80
2022/10/01 11:52:16;;;;;;;1.57;1.03;;;;;;;14.27;84.83;99574.72;5059443;28;20679;-82